createdAt,value
2018-07-20T00:00:01.873Z,15.1
2018-07-20T00:05:01.902Z,15.1
2018-07-20T00:10:01.624Z,15.1
2018-07-20T00:15:01.449Z,15.1
2018-07-20T00:20:02.058Z,15.1
2018-07-20T00:25:02.075Z,15.1
2018-07-20T00:30:01.412Z,15.1
2018-07-20T00:35:02.275Z,15.1
2018-07-20T00:40:02.260Z,15.1
2018-07-20T00:45:01.245Z,15.1
2018-07-20T00:50:01.878Z,14.9
2018-07-20T00:55:02.026Z,14.5
2018-07-20T01:00:01.936Z,14.5
2018-07-20T01:05:01.721Z,14.5
2018-07-20T01:10:01.733Z,14.5
2018-07-20T01:15:01.828Z,14.5
2018-07-20T01:20:01.201Z,14.5
2018-07-20T01:25:02.525Z,14.5
2018-07-20T01:30:01.422Z,14.6
2018-07-20T01:35:01.456Z,14.6
2018-07-20T01:40:01.302Z,14.6
2018-07-20T01:45:02.212Z,14.6
2018-07-20T01:50:01.348Z,14.6
2018-07-20T01:55:01.451Z,14.3
2018-07-20T02:00:02.490Z,14.3
2018-07-20T02:05:01.420Z,14.3
2018-07-20T02:10:01.520Z,14.3
2018-07-20T02:15:01.241Z,14.3
2018-07-20T02:20:02.021Z,14.3
2018-07-20T02:25:01.338Z,14.3
2018-07-20T02:30:01.626Z,14.3
2018-07-20T02:35:01.864Z,14.3
2018-07-20T02:40:01.631Z,14.3
2018-07-20T02:45:01.858Z,14.3
2018-07-20T02:50:02.303Z,14.3
2018-07-20T02:55:01.934Z,14.3
2018-07-20T03:00:01.438Z,14.3
2018-07-20T03:05:01.397Z,13.1
2018-07-20T03:10:01.728Z,13.1
2018-07-20T03:15:01.211Z,13.1
2018-07-20T03:20:01.823Z,13.1
2018-07-20T03:25:01.757Z,13.1
2018-07-20T03:30:01.964Z,13.1
2018-07-20T03:35:02.025Z,13.1
2018-07-20T03:40:02.472Z,13.1
2018-07-20T03:45:01.708Z,13.1
2018-07-20T03:50:01.451Z,13.1
2018-07-20T03:55:01.669Z,13.1
2018-07-20T04:00:02.512Z,13.1
2018-07-20T04:05:01.552Z,13.1
2018-07-20T04:10:01.610Z,13.1
2018-07-20T04:15:01.368Z,13.1
2018-07-20T04:20:02.095Z,13.1
2018-07-20T04:25:01.168Z,13.1
2018-07-20T04:30:01.547Z,13.1
2018-07-20T04:35:01.470Z,13.1
2018-07-20T04:40:01.861Z,13.1
2018-07-20T04:45:01.603Z,13.1
2018-07-20T04:50:01.322Z,13.1
2018-07-20T04:55:01.935Z,13.1
2018-07-20T05:00:01.280Z,13.1
2018-07-20T05:05:01.191Z,17.9
2018-07-20T05:10:01.813Z,17.9
2018-07-20T05:15:01.637Z,17.3
2018-07-20T05:20:01.289Z,17.3
2018-07-20T05:25:02.154Z,17
2018-07-20T05:30:01.604Z,16.8
2018-07-20T05:35:02.163Z,16.8
2018-07-20T05:40:02.728Z,16.7
2018-07-20T05:45:01.255Z,16.7
2018-07-20T05:50:01.871Z,16.7
2018-07-20T05:55:01.384Z,16.7
2018-07-20T06:00:01.996Z,16.7
2018-07-20T06:05:01.325Z,16.7
2018-07-20T06:10:01.465Z,16.7
2018-07-20T06:15:02.289Z,16.7
2018-07-20T06:20:01.577Z,16.7
2018-07-20T06:25:01.863Z,16.7
2018-07-20T06:30:01.347Z,16.7
2018-07-20T06:35:01.969Z,17.5
2018-07-20T06:40:01.944Z,17.5
2018-07-20T06:45:01.372Z,17.5
2018-07-20T06:50:01.689Z,17.5
2018-07-20T06:55:02.027Z,17.5
2018-07-20T07:00:01.570Z,17.5
2018-07-20T07:05:02.165Z,17.5
2018-07-20T07:10:01.874Z,17.5
2018-07-20T07:15:01.338Z,17.5
2018-07-20T07:20:01.653Z,17.5
2018-07-20T07:25:02.294Z,17.5
2018-07-20T07:30:01.795Z,17.5
2018-07-20T07:35:01.790Z,17.5
2018-07-20T07:40:01.814Z,17.5
2018-07-20T07:45:01.590Z,17.5
2018-07-20T07:50:01.235Z,17.5
2018-07-20T07:55:01.934Z,18.9
2018-07-20T08:00:01.783Z,23.1
2018-07-20T08:05:01.693Z,23.1
2018-07-20T08:10:01.890Z,23.5
2018-07-20T08:15:01.699Z,23.5
2018-07-20T08:20:01.817Z,23.5
2018-07-20T08:25:02.045Z,23.5
2018-07-20T08:30:01.993Z,23.5
2018-07-20T08:35:01.599Z,24.1
2018-07-20T08:40:01.376Z,24.8
2018-07-20T08:45:02.381Z,24.8
2018-07-20T08:50:01.718Z,24.8
2018-07-20T08:55:01.741Z,24.8
2018-07-20T09:00:01.313Z,24.8
2018-07-20T09:05:01.649Z,24.8
2018-07-20T09:10:01.562Z,24.8
2018-07-20T09:15:01.962Z,24.8
2018-07-20T09:20:01.648Z,24.8
2018-07-20T09:25:01.324Z,24.8
2018-07-20T09:30:01.265Z,24.8
2018-07-20T09:35:01.864Z,24.8
2018-07-20T09:40:01.553Z,24.8
2018-07-20T09:45:01.356Z,24.8
2018-07-20T09:50:02.302Z,24.8
2018-07-20T09:55:02.034Z,24.8
2018-07-20T10:00:01.660Z,24.8
2018-07-20T10:05:02.106Z,24.8
2018-07-20T10:10:01.328Z,24.8
2018-07-20T10:15:02.098Z,24.8
2018-07-20T10:20:01.840Z,27.9
2018-07-20T10:25:01.780Z,27.9
2018-07-20T10:30:02.102Z,27.9
2018-07-20T10:35:01.217Z,28.3
2018-07-20T10:40:02.488Z,28.6
2018-07-20T10:45:01.705Z,28.7
2018-07-20T10:50:01.727Z,28.7
2018-07-20T10:55:01.750Z,28.7
2018-07-20T11:00:01.391Z,28.7
2018-07-20T11:05:01.402Z,28.7
2018-07-20T11:10:01.398Z,28.7
2018-07-20T11:15:01.405Z,28.4
2018-07-20T11:20:02.182Z,28.4
2018-07-20T11:25:01.482Z,28.2
2018-07-20T11:30:02.401Z,28.2
2018-07-20T11:35:02.249Z,28.2
2018-07-20T11:40:01.254Z,29.3
2018-07-20T11:45:02.055Z,29.8
2018-07-20T11:50:02.344Z,29.9
2018-07-20T11:55:01.864Z,29.9
2018-07-20T12:00:01.599Z,29.9
2018-07-20T12:05:01.903Z,29.9
2018-07-20T12:10:02.444Z,29.9
2018-07-20T12:15:01.607Z,29.9
2018-07-20T12:20:01.431Z,29.9
2018-07-20T12:25:01.501Z,30.5
2018-07-20T12:30:01.617Z,30.6
2018-07-20T12:35:01.612Z,30.6
2018-07-20T12:40:01.414Z,30.8
2018-07-20T12:45:01.780Z,30.6
2018-07-20T12:50:01.818Z,30.6
2018-07-20T12:55:01.667Z,30.6
2018-07-20T13:00:01.508Z,30.1
2018-07-20T13:05:01.692Z,30.1
2018-07-20T13:10:01.457Z,30.1
2018-07-20T13:15:02.319Z,29.2
2018-07-20T13:20:01.440Z,29.2
2018-07-20T13:25:01.552Z,29.2
2018-07-20T13:30:01.845Z,29.1
2018-07-20T13:35:02.452Z,29.1
2018-07-20T13:40:01.783Z,28.3
2018-07-20T13:45:01.655Z,28.5
2018-07-20T13:50:02.030Z,28.6
2018-07-20T13:55:02.692Z,28.4
2018-07-20T14:00:02.002Z,28.4
2018-07-20T14:05:01.673Z,28.1
2018-07-20T14:10:01.778Z,27.9
2018-07-20T14:15:02.396Z,27.9
2018-07-20T14:20:02.185Z,27.9
2018-07-20T14:25:02.035Z,28
2018-07-20T14:30:01.554Z,28
2018-07-20T14:35:02.141Z,28
2018-07-20T14:40:01.984Z,27.9
2018-07-20T14:45:01.469Z,27.9
2018-07-20T14:50:01.604Z,27.9
2018-07-20T14:55:02.164Z,27.9
2018-07-20T15:00:01.503Z,27.9
2018-07-20T15:05:01.297Z,27.9
2018-07-20T15:10:01.607Z,27.9
2018-07-20T15:15:01.525Z,28.5
2018-07-20T15:20:01.723Z,28.5
2018-07-20T15:25:01.761Z,28.5
2018-07-20T15:30:02.259Z,28.5
2018-07-20T15:35:01.415Z,28.5
2018-07-20T15:40:01.450Z,28.5
2018-07-20T15:45:01.654Z,28.5
2018-07-20T15:50:02.102Z,28.5
2018-07-20T15:55:01.219Z,28.5
2018-07-20T16:00:02.189Z,28.5
2018-07-20T16:05:01.227Z,28.5
2018-07-20T16:10:01.839Z,28.5
2018-07-20T16:15:01.827Z,28.5
2018-07-20T16:20:01.653Z,28.5
2018-07-20T16:25:02.004Z,28.5
2018-07-20T16:30:01.507Z,28.5
2018-07-20T16:35:01.690Z,28.5
2018-07-20T16:40:01.740Z,28.5
2018-07-20T16:45:01.658Z,28.5
2018-07-20T16:50:01.800Z,28.5
2018-07-20T16:55:02.007Z,28.5
2018-07-20T17:00:01.943Z,28.5
2018-07-20T17:05:01.657Z,28.5
2018-07-20T17:10:01.996Z,28.5
2018-07-20T17:15:02.175Z,26.8
2018-07-20T17:20:01.665Z,26.8
2018-07-20T17:25:02.415Z,26.8
2018-07-20T17:30:01.457Z,27
2018-07-20T17:35:01.764Z,24.6
2018-07-20T17:40:01.346Z,24.6
2018-07-20T17:45:02.127Z,24.6
2018-07-20T17:50:01.731Z,24.6
2018-07-20T17:55:01.889Z,24.5
2018-07-20T18:00:01.987Z,23.7
2018-07-20T18:05:02.556Z,23.7
2018-07-20T18:10:01.467Z,23.7
2018-07-20T18:15:01.489Z,23.6
2018-07-20T18:20:03.299Z,23.3
2018-07-20T18:25:01.675Z,23.3
2018-07-20T18:30:01.825Z,23.3
2018-07-20T18:35:02.559Z,23.3
2018-07-20T18:40:01.656Z,22.9
2018-07-20T18:45:01.886Z,22.9
2018-07-20T18:50:02.427Z,22.9
2018-07-20T18:55:01.921Z,22.9
2018-07-20T19:00:01.454Z,22.9
2018-07-20T19:05:01.363Z,22.9
2018-07-20T19:10:01.508Z,22.9
2018-07-20T19:15:01.373Z,22.9
2018-07-20T19:20:02.112Z,22.9
2018-07-20T19:25:01.897Z,22.9
2018-07-20T19:30:01.938Z,22.9
2018-07-20T19:35:01.833Z,22.9
2018-07-20T19:40:02.108Z,22.9
2018-07-20T19:45:02.034Z,22.9
2018-07-20T19:50:02.121Z,22.9
2018-07-20T19:55:01.541Z,22.9
2018-07-20T20:00:01.934Z,22.9
2018-07-20T20:05:01.888Z,22.9
2018-07-20T20:10:01.844Z,22.9
2018-07-20T20:15:01.665Z,21.6
2018-07-20T20:20:01.733Z,19.6
2018-07-20T20:25:02.071Z,19.6
2018-07-20T20:30:01.853Z,19.6
2018-07-20T20:35:01.466Z,19.6
2018-07-20T20:40:02.132Z,19.6
2018-07-20T20:45:01.796Z,19.6
2018-07-20T20:50:01.916Z,19.6
2018-07-20T20:55:01.755Z,19.6
2018-07-20T21:00:01.576Z,19.6
2018-07-20T21:05:01.813Z,19.6
2018-07-20T21:10:01.760Z,19.2
2018-07-20T21:15:02.377Z,19.2
2018-07-20T21:20:01.487Z,18.1
2018-07-20T21:25:02.061Z,17.9
2018-07-20T21:30:01.955Z,17.9
2018-07-20T21:35:02.041Z,17.7
2018-07-20T21:40:01.846Z,17.7
2018-07-20T21:45:01.755Z,17.7
2018-07-20T21:50:02.076Z,17.7
2018-07-20T21:55:01.369Z,17.7
2018-07-20T22:00:01.965Z,17.7
2018-07-20T22:05:02.297Z,17.7
2018-07-20T22:10:01.817Z,17.7
2018-07-20T22:15:02.196Z,17.7
2018-07-20T22:20:01.669Z,17.7
2018-07-20T22:25:02.346Z,17.7
2018-07-20T22:30:01.851Z,17.7
2018-07-20T22:35:01.393Z,17.7
2018-07-20T22:40:02.032Z,17.7
2018-07-20T22:45:02.498Z,17.7
2018-07-20T22:50:01.641Z,17.7
2018-07-20T22:55:01.200Z,17.7
2018-07-20T23:00:01.226Z,17.7
2018-07-20T23:05:01.889Z,17.7
2018-07-20T23:10:01.892Z,17.7
2018-07-20T23:15:01.281Z,17.7
2018-07-20T23:20:01.898Z,17.7
2018-07-20T23:25:01.262Z,17.7
2018-07-20T23:30:02.106Z,17.7
2018-07-20T23:35:01.549Z,17.7
2018-07-20T23:40:01.829Z,17.7
2018-07-20T23:45:01.342Z,17.7
2018-07-20T23:50:01.744Z,17.7
2018-07-20T23:55:01.744Z,17.7
